NAT18.5219
Poley Invitational U14; U16; U18; U21; Masters - 2 run SL
Mens 2 RUN SL on 1/21/2018
Poley Mountain

Jury

TECHNICAL DELEGATE: Dawn McLean (CAN)
CHIEF OF RACE: Dick Daigle (CAN)
REFEREE: Gregor Byrne (CAN)
CHIEF OF COURSE: John Oxley (CAN)
START REF: McNeil Mike (CAN)
FINISH REF: Peter MaGee (CAN)
RACE ADMIN: Kim Peer (CAN)
CHIEF OF TIMING: Brayden McLean (CAN)

Technical Data

START ELEV.: 243
FINISH ELEV.: 136
HOMOLOGATION:
APPLIED PENALTY: 259.14
CALC PENALTY: 259.14
F VALUE: 720
COURSE SETTER: Aaron Dowding (CAN)
# OF GATES: 46
START TIME: 8:45
WEATHER: SUNNY, CLEAR
SNOW: HARD PACKED
TEMP (start/finish): -6 / -4
START ELEV.: 243
FINISH ELEV.: 136
HOMOLOGATION:
APPLIED PENALTY: 259.14
CALC PENALTY: 259.14
F VALUE: 720
COURSE SETTER: Keith Dunphy (CAN)
# OF GATES: 47
START TIME: 8:45
WEATHER: SUNNY, CLEAR
SNOW: HARD PACKED
TEMP (start/finish): -6 / -4
Rank Bib Card Competitor Run1 Run2 Total RPoints
1 4 70014 TODD Emily 40.77 43.04 01:23.8 0
2 11 73565 TZANETEAS Eliana 42.5 44.42 01:26.9 26.72
3 13 77022 LAPLANTE Chloe 43.45 46.44 01:29.9 52.23
4 8 70582 BOSSHARD Gabrielle 44.3 45.74 01:30.0 53.52
5 12 71482 BOSSE Jolaine 45.19 45.36 01:30.6 57.9
6 5 71539 HARMON Jessica 44.09 46.68 01:30.8 59.79
7 19 73492 HENDERSON Isabelle 44.32 46.63 01:31.0 61.34
8 16 67317 GILLIS Elsie 45.18 46.46 01:31.6 67.27
9 3 80167 DOUGLAS Katherine 45.25 46.89 01:32.1 71.56
10 17 73339 SUTHERLAND Laine 45 47.22 01:32.2 72.25
11 6 79391 CUDMORE Makena 45.26 47.4 01:32.7 76.03
12 15 70330 HICKEY Paige 47.43 45.81 01:33.2 81.01
13 24 73325 HIEW Sophia 46.05 47.26 01:33.3 81.61
14 23 85510 OAKLEY Lily 46.28 47.4 01:33.7 84.79
15 41 72837 MACNEIL Madeline 46.34 48.05 01:34.4 90.89
16 36 87822 BARRETT Meghan 47.82 48.66 01:36.5 108.85
17 29 77026 AUCOIN Kamille 47.5 49.45 01:37.0 112.88
18 2 71499 MCLEAN Elizabeth 42.17 54.82 01:37.0 113.23
19 21 77040 STOREY Abby 47.7 49.54 01:37.2 115.38
20 22 73366 FAULKNER Jenna 48.17 49.33 01:37.5 117.61
21 26 77042 WHITE Jessica 47.88 49.8 01:37.7 119.16
22 18 67327 MYLES Lindsay 49.15 48.86 01:38.0 121.99
23 34 79311 PACE Victoria 47.54 50.55 01:38.1 122.68
24 38 77676 SKULSKY Sophia 49.45 50.95 01:40.4 142.52
25 32 84381 ELLERBROK Kierstin 50.23 52.21 01:42.4 160.05
26 52 87820 ROLLINGS Sophia 51.12 51.94 01:43.1 165.37
27 14 80160 CUDMORE Macy 45.48 57.69 01:43.2 166.32
28 49 81622 PARSONS Severn 50.63 53.02 01:43.7 170.44
29 31 79644 MITTON Azlyn 50.95 52.91 01:43.9 172.25
30 28 78637 PRICE Lauren 50.51 53.65 01:44.2 174.82
31 51 84313 WILSON Maggie 51.74 52.8 01:44.5 178.09
32 46 77012 OULTON Carmen 53.84 52.85 01:46.7 196.56
33 33 84466 KEEDWELL Hilary 51.65 55.72 01:47.4 202.4
34 9 67318 GILLIS Madeline 01:03.7 44.98 01:48.7 213.91
35 57 87503 EMMERSON Destiny 55.59 55.73 01:51.3 236.33
36 25 77669 PIKE Madeleine 01:01.1 50.46 01:51.5 238.14
37 54 81618 PRETTY Caroline 55.94 57.13 01:53.1 251.37
38 48 81609 MCNALLY Laura 55.75 57.39 01:53.1 251.97
39 44 77568 PROSSER Michaela 50.75 01:03.1 01:53.8 257.98
40 47 82357 MACDONALD Salena 55.41 58.83 01:54.2 261.42
41 27 67269 BOUDREAU Sarah 56.78 58.8 01:55.6 272.93
42 43 77041 TRITES Nicole 51.74 01:04.1 01:55.8 274.99
43 35 85507 CHILDS Kate 01:02.9 54.75 01:57.7 290.89
44 10 70591 DUNPHY Kyra 01:15.5 44.45 02:00.0 310.73
45 45 73370 GODDARD Lucy 01:04.8 57.59 02:02.4 331.26
46 50 79059 FRASER Paige 01:02.8 01:08.2 02:11.0 405.14
47 100 80163 ROBICHAUD Christel 01:28.9 01:31.6 03:00.5 831.08
999 53 74415 DAYA Cadence DNS 0
999 20 78634 MCCAIN Kaitlyn DNF 49.58 0
999 30 70586 DAIGLE Ella DNF 0
999 42 78636 PRICE Carolyn DNF 56.66 0
999 55 77657 BELYEA Hayley DNF 52.04 0
999 37 73333 RICE-WELLMAN Alexandra 01:05.5 DNS 0
999 40 79309 HATFIELD Delaney 50.03 DNF 0
999 1 80161 PETERSON Sophie 46.4 DSQ - 0 0

RESULTS GENERATED BY: Split Second Timing 6.81
LIST USED: NAT1808_19_01_2018.TXT